Morro Bay, California
Current Conditions -  °F | °C
As of 3:56 AM on Sunday 23 Nov 2014 (Local Time) from KSBP Reporting Station
Clear Clear  
Wind Chill: 56°   Ceiling: Unl
Heat Index: 56°   Visibility: 10mi
Dew Point: 48°   Wind: 10mph
Humidity: 75%   Direction: 320°NW
Pressure: 30.16"   Gusts: NA
Location:  35.37°N, 120.84°W
Report Text: KSBP 231156Z AUTO 32009KT 290V360 10SM CLR 13/09 A3016 RMK AO2 SLP212 T01330089 10161 20133 53005
Loading
Personal Weather Stations






























Interactive Weather Map New forecast layout! Learn more

10-Day Weather Forecast

Advertisements
Track Severe Weather on mobile